sensor_id;sensor_type;location;lat;lon;timestamp;P1;durP1;ratioP1;P2;durP2;ratioP2
62523;SDS011;53689;56.878;60.672;2022-12-07T00:01:06;8.02;;;5.35;;
62523;SDS011;53689;56.878;60.672;2022-12-07T00:03:34;8.38;;;5.70;;
62523;SDS011;53689;56.878;60.672;2022-12-07T00:06:03;9.50;;;5.53;;
62523;SDS011;53689;56.878;60.672;2022-12-07T00:08:31;9.77;;;5.45;;
62523;SDS011;53689;56.878;60.672;2022-12-07T00:11:02;8.43;;;5.32;;
62523;SDS011;53689;56.878;60.672;2022-12-07T00:13:30;9.88;;;6.03;;
62523;SDS011;53689;56.878;60.672;2022-12-07T00:15:59;9.93;;;5.90;;
62523;SDS011;53689;56.878;60.672;2022-12-07T00:18:29;11.10;;;5.43;;
62523;SDS011;53689;56.878;60.672;2022-12-07T00:20:59;9.40;;;5.55;;
62523;SDS011;53689;56.878;60.672;2022-12-07T00:23:27;8.40;;;5.47;;
62523;SDS011;53689;56.878;60.672;2022-12-07T00:25:54;8.85;;;5.40;;
62523;SDS011;53689;56.878;60.672;2022-12-07T00:28:23;8.07;;;5.13;;
62523;SDS011;53689;56.878;60.672;2022-12-07T00:30:51;8.63;;;5.40;;
62523;SDS011;53689;56.878;60.672;2022-12-07T00:33:19;9.30;;;5.97;;
62523;SDS011;53689;56.878;60.672;2022-12-07T00:35:46;10.90;;;5.68;;
62523;SDS011;53689;56.878;60.672;2022-12-07T00:38:21;12.02;;;5.90;;
62523;SDS011;53689;56.878;60.672;2022-12-07T00:40:53;11.95;;;5.97;;
62523;SDS011;53689;56.878;60.672;2022-12-07T00:43:24;12.20;;;6.10;;
62523;SDS011;53689;56.878;60.672;2022-12-07T00:48:19;10.10;;;5.78;;
62523;SDS011;53689;56.878;60.672;2022-12-07T00:50:47;12.27;;;6.57;;
62523;SDS011;53689;56.878;60.672;2022-12-07T00:53:15;14.27;;;6.10;;
62523;SDS011;53689;56.878;60.672;2022-12-07T00:55:43;12.13;;;5.90;;
62523;SDS011;53689;56.878;60.672;2022-12-07T00:58:11;11.40;;;5.97;;
62523;SDS011;53689;56.878;60.672;2022-12-07T01:00:40;11.73;;;6.60;;
62523;SDS011;53689;56.878;60.672;2022-12-07T01:03:10;11.75;;;6.13;;
62523;SDS011;53689;56.878;60.672;2022-12-07T01:05:39;11.23;;;5.63;;
62523;SDS011;53689;56.878;60.672;2022-12-07T01:08:08;12.57;;;6.88;;
62523;SDS011;53689;56.878;60.672;2022-12-07T01:10:36;19.85;;;7.57;;
62523;SDS011;53689;56.878;60.672;2022-12-07T01:13:03;16.15;;;6.45;;
62523;SDS011;53689;56.878;60.672;2022-12-07T01:15:31;12.23;;;6.18;;
62523;SDS011;53689;56.878;60.672;2022-12-07T01:18:00;13.65;;;6.63;;
62523;SDS011;53689;56.878;60.672;2022-12-07T01:20:27;12.55;;;6.68;;
62523;SDS011;53689;56.878;60.672;2022-12-07T01:22:55;13.55;;;6.57;;
62523;SDS011;53689;56.878;60.672;2022-12-07T01:25:23;12.85;;;7.50;;
62523;SDS011;53689;56.878;60.672;2022-12-07T01:27:50;13.02;;;6.40;;
62523;SDS011;53689;56.878;60.672;2022-12-07T01:30:18;11.60;;;6.47;;
62523;SDS011;53689;56.878;60.672;2022-12-07T01:32:45;12.70;;;6.10;;
62523;SDS011;53689;56.878;60.672;2022-12-07T01:35:14;13.77;;;6.25;;
62523;SDS011;53689;56.878;60.672;2022-12-07T01:37:42;14.00;;;6.38;;
62523;SDS011;53689;56.878;60.672;2022-12-07T01:40:10;10.95;;;6.05;;
62523;SDS011;53689;56.878;60.672;2022-12-07T01:42:38;12.38;;;5.97;;
62523;SDS011;53689;56.878;60.672;2022-12-07T01:48:07;12.43;;;6.47;;
62523;SDS011;53689;56.878;60.672;2022-12-07T01:50:39;12.23;;;6.03;;
62523;SDS011;53689;56.878;60.672;2022-12-07T01:53:08;14.50;;;7.22;;
62523;SDS011;53689;56.878;60.672;2022-12-07T01:55:37;12.45;;;6.07;;
62523;SDS011;53689;56.878;60.672;2022-12-07T01:58:09;12.02;;;6.28;;
62523;SDS011;53689;56.878;60.672;2022-12-07T02:00:38;13.73;;;7.03;;
62523;SDS011;53689;56.878;60.672;2022-12-07T02:03:08;11.85;;;6.07;;
62523;SDS011;53689;56.878;60.672;2022-12-07T02:05:40;12.48;;;6.60;;
62523;SDS011;53689;56.878;60.672;2022-12-07T02:08:09;11.82;;;6.50;;
62523;SDS011;53689;56.878;60.672;2022-12-07T02:10:38;10.40;;;6.57;;
62523;SDS011;53689;56.878;60.672;2022-12-07T02:13:08;11.95;;;6.32;;
62523;SDS011;53689;56.878;60.672;2022-12-07T02:15:46;11.80;;;6.20;;
62523;SDS011;53689;56.878;60.672;2022-12-07T02:18:34;12.27;;;6.00;;
62523;SDS011;53689;56.878;60.672;2022-12-07T02:21:19;13.13;;;7.20;;
62523;SDS011;53689;56.878;60.672;2022-12-07T02:24:03;16.48;;;8.02;;
62523;SDS011;53689;56.878;60.672;2022-12-07T02:26:47;11.38;;;6.03;;
62523;SDS011;53689;56.878;60.672;2022-12-07T02:29:30;11.55;;;7.03;;
62523;SDS011;53689;56.878;60.672;2022-12-07T02:32:03;10.05;;;6.18;;
62523;SDS011;53689;56.878;60.672;2022-12-07T02:34:38;10.15;;;6.28;;
62523;SDS011;53689;56.878;60.672;2022-12-07T02:37:14;12.02;;;6.78;;
62523;SDS011;53689;56.878;60.672;2022-12-07T02:39:50;10.63;;;6.75;;
62523;SDS011;53689;56.878;60.672;2022-12-07T02:42:23;12.55;;;6.60;;
62523;SDS011;53689;56.878;60.672;2022-12-07T02:44:57;9.85;;;5.90;;
62523;SDS011;53689;56.878;60.672;2022-12-07T02:47:27;9.93;;;6.28;;
62523;SDS011;53689;56.878;60.672;2022-12-07T02:49:56;12.48;;;6.50;;
62523;SDS011;53689;56.878;60.672;2022-12-07T02:52:24;12.15;;;6.93;;
62523;SDS011;53689;56.878;60.672;2022-12-07T02:54:52;12.32;;;6.90;;
62523;SDS011;53689;56.878;60.672;2022-12-07T02:57:23;11.50;;;6.32;;
62523;SDS011;53689;56.878;60.672;2022-12-07T03:00:06;12.32;;;6.25;;
62523;SDS011;53689;56.878;60.672;2022-12-07T03:02:37;12.25;;;7.25;;
62523;SDS011;53689;56.878;60.672;2022-12-07T03:05:17;11.00;;;7.43;;
62523;SDS011;53689;56.878;60.672;2022-12-07T03:07:59;11.38;;;7.97;;
62523;SDS011;53689;56.878;60.672;2022-12-07T03:10:34;11.65;;;7.00;;
62523;SDS011;53689;56.878;60.672;2022-12-07T03:13:09;11.88;;;7.25;;
62523;SDS011;53689;56.878;60.672;2022-12-07T03:15:42;13.43;;;7.30;;
62523;SDS011;53689;56.878;60.672;2022-12-07T03:18:14;10.43;;;6.78;;
62523;SDS011;53689;56.878;60.672;2022-12-07T03:20:46;13.60;;;7.55;;
62523;SDS011;53689;56.878;60.672;2022-12-07T03:23:16;9.80;;;6.85;;
62523;SDS011;53689;56.878;60.672;2022-12-07T03:25:47;11.95;;;6.97;;
62523;SDS011;53689;56.878;60.672;2022-12-07T03:28:26;9.48;;;6.30;;
62523;SDS011;53689;56.878;60.672;2022-12-07T03:31:00;9.27;;;6.55;;
62523;SDS011;53689;56.878;60.672;2022-12-07T03:33:34;11.13;;;6.22;;
62523;SDS011;53689;56.878;60.672;2022-12-07T03:36:08;11.52;;;6.25;;
62523;SDS011;53689;56.878;60.672;2022-12-07T03:38:44;14.25;;;7.72;;
62523;SDS011;53689;56.878;60.672;2022-12-07T03:41:16;15.82;;;9.82;;
62523;SDS011;53689;56.878;60.672;2022-12-07T03:43:45;17.00;;;10.57;;
62523;SDS011;53689;56.878;60.672;2022-12-07T03:46:17;18.45;;;10.45;;
62523;SDS011;53689;56.878;60.672;2022-12-07T03:48:55;22.48;;;12.18;;
62523;SDS011;53689;56.878;60.672;2022-12-07T03:51:27;19.17;;;10.13;;
62523;SDS011;53689;56.878;60.672;2022-12-07T03:54:05;19.10;;;10.63;;
62523;SDS011;53689;56.878;60.672;2022-12-07T03:56:38;22.52;;;11.55;;
62523;SDS011;53689;56.878;60.672;2022-12-07T03:59:06;27.02;;;11.98;;
62523;SDS011;53689;56.878;60.672;2022-12-07T04:01:36;20.90;;;12.10;;
62523;SDS011;53689;56.878;60.672;2022-12-07T04:04:03;22.58;;;11.65;;
62523;SDS011;53689;56.878;60.672;2022-12-07T04:06:31;19.60;;;10.38;;
62523;SDS011;53689;56.878;60.672;2022-12-07T04:08:59;25.23;;;12.30;;
62523;SDS011;53689;56.878;60.672;2022-12-07T04:11:26;24.08;;;12.27;;
62523;SDS011;53689;56.878;60.672;2022-12-07T04:13:54;21.20;;;11.10;;
62523;SDS011;53689;56.878;60.672;2022-12-07T04:16:21;20.45;;;11.27;;
62523;SDS011;53689;56.878;60.672;2022-12-07T04:18:50;23.25;;;11.85;;
62523;SDS011;53689;56.878;60.672;2022-12-07T04:21:18;18.77;;;10.93;;
62523;SDS011;53689;56.878;60.672;2022-12-07T04:23:46;23.95;;;12.05;;
62523;SDS011;53689;56.878;60.672;2022-12-07T04:26:13;19.92;;;10.63;;
62523;SDS011;53689;56.878;60.672;2022-12-07T04:28:41;19.42;;;9.00;;
62523;SDS011;53689;56.878;60.672;2022-12-07T04:31:08;23.70;;;10.95;;
62523;SDS011;53689;56.878;60.672;2022-12-07T04:33:36;23.85;;;12.73;;
62523;SDS011;53689;56.878;60.672;2022-12-07T04:36:05;25.30;;;11.52;;
62523;SDS011;53689;56.878;60.672;2022-12-07T04:41:04;23.98;;;11.65;;
62523;SDS011;53689;56.878;60.672;2022-12-07T04:43:32;21.15;;;11.95;;
62523;SDS011;53689;56.878;60.672;2022-12-07T04:46:00;20.52;;;11.35;;
62523;SDS011;53689;56.878;60.672;2022-12-07T04:48:28;24.83;;;13.93;;
62523;SDS011;53689;56.878;60.672;2022-12-07T04:50:55;24.63;;;12.95;;
62523;SDS011;53689;56.878;60.672;2022-12-07T04:53:24;28.02;;;14.18;;
62523;SDS011;53689;56.878;60.672;2022-12-07T04:55:52;26.17;;;13.80;;
62523;SDS011;53689;56.878;60.672;2022-12-07T04:58:20;22.77;;;13.45;;
62523;SDS011;53689;56.878;60.672;2022-12-07T05:00:47;24.48;;;12.82;;
62523;SDS011;53689;56.878;60.672;2022-12-07T05:03:15;29.27;;;15.07;;
62523;SDS011;53689;56.878;60.672;2022-12-07T05:05:42;28.65;;;15.55;;
62523;SDS011;53689;56.878;60.672;2022-12-07T05:08:11;31.25;;;15.63;;
62523;SDS011;53689;56.878;60.672;2022-12-07T05:10:40;36.92;;;16.00;;
62523;SDS011;53689;56.878;60.672;2022-12-07T05:13:08;55.30;;;18.17;;
62523;SDS011;53689;56.878;60.672;2022-12-07T05:15:35;49.95;;;17.17;;
62523;SDS011;53689;56.878;60.672;2022-12-07T05:18:02;45.85;;;16.45;;
62523;SDS011;53689;56.878;60.672;2022-12-07T05:20:30;41.10;;;17.30;;
62523;SDS011;53689;56.878;60.672;2022-12-07T05:23:01;38.55;;;16.83;;
62523;SDS011;53689;56.878;60.672;2022-12-07T05:25:29;46.28;;;15.15;;
62523;SDS011;53689;56.878;60.672;2022-12-07T05:27:57;42.20;;;15.13;;
62523;SDS011;53689;56.878;60.672;2022-12-07T05:32:53;36.40;;;15.90;;
62523;SDS011;53689;56.878;60.672;2022-12-07T05:35:21;44.42;;;16.48;;
62523;SDS011;53689;56.878;60.672;2022-12-07T05:37:49;35.92;;;16.30;;
62523;SDS011;53689;56.878;60.672;2022-12-07T05:40:16;36.00;;;16.83;;
62523;SDS011;53689;56.878;60.672;2022-12-07T05:42:44;37.33;;;17.83;;
62523;SDS011;53689;56.878;60.672;2022-12-07T05:45:13;39.88;;;17.73;;
62523;SDS011;53689;56.878;60.672;2022-12-07T05:47:41;33.20;;;17.13;;
62523;SDS011;53689;56.878;60.672;2022-12-07T05:50:09;33.03;;;17.33;;
62523;SDS011;53689;56.878;60.672;2022-12-07T05:52:37;35.00;;;17.33;;
62523;SDS011;53689;56.878;60.672;2022-12-07T05:55:04;31.42;;;16.85;;
62523;SDS011;53689;56.878;60.672;2022-12-07T05:57:33;31.80;;;16.98;;
62523;SDS011;53689;56.878;60.672;2022-12-07T06:00:01;37.67;;;17.52;;
62523;SDS011;53689;56.878;60.672;2022-12-07T06:02:39;33.58;;;17.55;;
62523;SDS011;53689;56.878;60.672;2022-12-07T06:05:07;36.72;;;18.30;;
62523;SDS011;53689;56.878;60.672;2022-12-07T06:07:34;32.13;;;17.85;;
62523;SDS011;53689;56.878;60.672;2022-12-07T06:10:02;34.88;;;18.63;;
62523;SDS011;53689;56.878;60.672;2022-12-07T06:12:30;30.33;;;17.45;;
62523;SDS011;53689;56.878;60.672;2022-12-07T06:14:58;30.92;;;17.70;;
62523;SDS011;53689;56.878;60.672;2022-12-07T06:17:26;35.10;;;18.27;;
62523;SDS011;53689;56.878;60.672;2022-12-07T06:19:55;32.20;;;18.15;;
62523;SDS011;53689;56.878;60.672;2022-12-07T06:22:23;34.40;;;17.52;;
62523;SDS011;53689;56.878;60.672;2022-12-07T06:24:51;35.10;;;17.65;;
62523;SDS011;53689;56.878;60.672;2022-12-07T06:27:18;32.83;;;17.95;;
62523;SDS011;53689;56.878;60.672;2022-12-07T06:29:47;28.88;;;17.58;;
62523;SDS011;53689;56.878;60.672;2022-12-07T06:32:14;34.67;;;19.17;;
62523;SDS011;53689;56.878;60.672;2022-12-07T06:34:42;31.48;;;18.48;;
62523;SDS011;53689;56.878;60.672;2022-12-07T06:37:12;30.33;;;17.73;;
62523;SDS011;53689;56.878;60.672;2022-12-07T06:39:39;28.60;;;17.40;;
62523;SDS011;53689;56.878;60.672;2022-12-07T06:42:07;35.92;;;18.52;;
62523;SDS011;53689;56.878;60.672;2022-12-07T06:44:34;36.45;;;18.58;;
62523;SDS011;53689;56.878;60.672;2022-12-07T06:47:02;39.20;;;18.90;;
62523;SDS011;53689;56.878;60.672;2022-12-07T06:49:50;37.60;;;19.00;;
62523;SDS011;53689;56.878;60.672;2022-12-07T06:52:19;38.42;;;19.45;;
62523;SDS011;53689;56.878;60.672;2022-12-07T06:54:47;36.90;;;19.55;;
62523;SDS011;53689;56.878;60.672;2022-12-07T06:57:14;30.33;;;18.73;;
62523;SDS011;53689;56.878;60.672;2022-12-07T06:59:42;39.78;;;19.08;;
62523;SDS011;53689;56.878;60.672;2022-12-07T07:02:10;38.67;;;21.13;;
62523;SDS011;53689;56.878;60.672;2022-12-07T07:04:37;39.35;;;19.70;;
62523;SDS011;53689;56.878;60.672;2022-12-07T07:07:05;33.25;;;19.13;;
62523;SDS011;53689;56.878;60.672;2022-12-07T07:09:35;33.35;;;18.20;;
62523;SDS011;53689;56.878;60.672;2022-12-07T07:12:02;32.78;;;18.77;;
62523;SDS011;53689;56.878;60.672;2022-12-07T07:14:30;34.58;;;18.83;;
62523;SDS011;53689;56.878;60.672;2022-12-07T07:16:58;34.60;;;19.02;;
62523;SDS011;53689;56.878;60.672;2022-12-07T07:19:26;31.67;;;18.92;;
62523;SDS011;53689;56.878;60.672;2022-12-07T07:21:54;37.90;;;20.27;;
62523;SDS011;53689;56.878;60.672;2022-12-07T07:24:21;34.45;;;18.10;;
62523;SDS011;53689;56.878;60.672;2022-12-07T07:26:50;34.88;;;18.85;;
62523;SDS011;53689;56.878;60.672;2022-12-07T07:29:17;32.42;;;18.33;;
62523;SDS011;53689;56.878;60.672;2022-12-07T07:31:45;34.25;;;19.02;;
62523;SDS011;53689;56.878;60.672;2022-12-07T07:34:12;30.23;;;18.25;;
62523;SDS011;53689;56.878;60.672;2022-12-07T07:36:40;31.95;;;17.67;;
62523;SDS011;53689;56.878;60.672;2022-12-07T07:39:09;33.40;;;19.55;;
62523;SDS011;53689;56.878;60.672;2022-12-07T07:41:36;32.45;;;19.38;;
62523;SDS011;53689;56.878;60.672;2022-12-07T07:44:12;33.65;;;18.75;;
62523;SDS011;53689;56.878;60.672;2022-12-07T07:46:40;36.35;;;19.05;;
62523;SDS011;53689;56.878;60.672;2022-12-07T07:49:08;33.03;;;19.35;;
62523;SDS011;53689;56.878;60.672;2022-12-07T07:51:36;40.05;;;19.92;;
62523;SDS011;53689;56.878;60.672;2022-12-07T07:54:05;37.15;;;19.65;;
62523;SDS011;53689;56.878;60.672;2022-12-07T07:56:32;35.20;;;19.55;;
62523;SDS011;53689;56.878;60.672;2022-12-07T07:59:00;42.13;;;19.77;;
62523;SDS011;53689;56.878;60.672;2022-12-07T08:01:30;35.50;;;18.95;;
62523;SDS011;53689;56.878;60.672;2022-12-07T08:03:57;36.90;;;19.90;;
62523;SDS011;53689;56.878;60.672;2022-12-07T08:06:25;31.73;;;18.42;;
62523;SDS011;53689;56.878;60.672;2022-12-07T08:08:58;34.95;;;17.75;;
62523;SDS011;53689;56.878;60.672;2022-12-07T08:11:25;32.15;;;17.88;;
62523;SDS011;53689;56.878;60.672;2022-12-07T08:13:53;30.27;;;16.48;;
62523;SDS011;53689;56.878;60.672;2022-12-07T08:16:21;32.85;;;18.13;;
62523;SDS011;53689;56.878;60.672;2022-12-07T08:18:50;29.20;;;15.57;;
62523;SDS011;53689;56.878;60.672;2022-12-07T08:21:19;29.67;;;17.60;;
62523;SDS011;53689;56.878;60.672;2022-12-07T08:23:47;28.30;;;17.23;;
62523;SDS011;53689;56.878;60.672;2022-12-07T08:26:15;28.17;;;16.00;;
62523;SDS011;53689;56.878;60.672;2022-12-07T08:31:13;27.27;;;16.40;;
62523;SDS011;53689;56.878;60.672;2022-12-07T08:33:44;28.48;;;17.70;;
62523;SDS011;53689;56.878;60.672;2022-12-07T08:36:14;34.28;;;17.98;;
62523;SDS011;53689;56.878;60.672;2022-12-07T08:41:30;28.83;;;16.25;;
62523;SDS011;53689;56.878;60.672;2022-12-07T08:43:58;27.70;;;16.13;;
62523;SDS011;53689;56.878;60.672;2022-12-07T08:46:26;32.22;;;18.38;;
62523;SDS011;53689;56.878;60.672;2022-12-07T08:48:58;26.17;;;16.40;;
62523;SDS011;53689;56.878;60.672;2022-12-07T08:51:31;28.95;;;17.27;;
62523;SDS011;53689;56.878;60.672;2022-12-07T08:54:00;28.92;;;17.00;;
62523;SDS011;53689;56.878;60.672;2022-12-07T08:56:30;28.08;;;15.60;;
62523;SDS011;53689;56.878;60.672;2022-12-07T08:58:58;32.15;;;16.95;;
62523;SDS011;53689;56.878;60.672;2022-12-07T09:01:26;31.15;;;15.95;;
62523;SDS011;53689;56.878;60.672;2022-12-07T09:03:55;27.02;;;16.05;;
62523;SDS011;53689;56.878;60.672;2022-12-07T09:06:22;23.55;;;14.90;;
62523;SDS011;53689;56.878;60.672;2022-12-07T09:08:53;25.33;;;15.32;;
62523;SDS011;53689;56.878;60.672;2022-12-07T09:11:24;27.58;;;15.82;;
62523;SDS011;53689;56.878;60.672;2022-12-07T09:13:54;25.75;;;15.50;;
62523;SDS011;53689;56.878;60.672;2022-12-07T09:16:22;27.50;;;15.25;;
62523;SDS011;53689;56.878;60.672;2022-12-07T09:18:50;28.48;;;16.38;;
62523;SDS011;53689;56.878;60.672;2022-12-07T09:21:18;24.30;;;15.20;;
62523;SDS011;53689;56.878;60.672;2022-12-07T09:23:45;30.25;;;15.55;;
62523;SDS011;53689;56.878;60.672;2022-12-07T09:26:14;28.10;;;15.32;;
62523;SDS011;53689;56.878;60.672;2022-12-07T09:28:43;27.60;;;15.07;;
62523;SDS011;53689;56.878;60.672;2022-12-07T09:31:10;26.42;;;15.60;;
62523;SDS011;53689;56.878;60.672;2022-12-07T09:33:54;28.83;;;15.10;;
62523;SDS011;53689;56.878;60.672;2022-12-07T09:36:22;29.02;;;15.90;;
62523;SDS011;53689;56.878;60.672;2022-12-07T09:38:50;25.27;;;14.38;;
62523;SDS011;53689;56.878;60.672;2022-12-07T09:41:19;24.00;;;15.32;;
62523;SDS011;53689;56.878;60.672;2022-12-07T09:43:48;28.90;;;15.90;;
62523;SDS011;53689;56.878;60.672;2022-12-07T09:46:17;29.88;;;16.00;;
62523;SDS011;53689;56.878;60.672;2022-12-07T09:48:46;28.80;;;15.48;;
62523;SDS011;53689;56.878;60.672;2022-12-07T09:51:17;24.50;;;14.57;;
62523;SDS011;53689;56.878;60.672;2022-12-07T09:53:50;31.50;;;15.63;;
62523;SDS011;53689;56.878;60.672;2022-12-07T09:56:21;30.95;;;16.23;;
62523;SDS011;53689;56.878;60.672;2022-12-07T09:58:51;24.90;;;15.35;;
62523;SDS011;53689;56.878;60.672;2022-12-07T10:01:24;24.67;;;15.20;;
62523;SDS011;53689;56.878;60.672;2022-12-07T10:03:58;27.73;;;15.80;;
62523;SDS011;53689;56.878;60.672;2022-12-07T10:09:11;25.60;;;14.38;;
62523;SDS011;53689;56.878;60.672;2022-12-07T10:12:00;30.97;;;15.87;;
62523;SDS011;53689;56.878;60.672;2022-12-07T10:14:30;26.95;;;15.55;;
62523;SDS011;53689;56.878;60.672;2022-12-07T10:17:29;25.15;;;15.20;;
62523;SDS011;53689;56.878;60.672;2022-12-07T10:20:13;24.08;;;13.88;;
62523;SDS011;53689;56.878;60.672;2022-12-07T10:25:25;25.40;;;14.52;;
62523;SDS011;53689;56.878;60.672;2022-12-07T10:28:03;23.92;;;14.82;;
62523;SDS011;53689;56.878;60.672;2022-12-07T10:33:28;29.13;;;15.70;;
62523;SDS011;53689;56.878;60.672;2022-12-07T10:35:57;29.05;;;15.60;;
62523;SDS011;53689;56.878;60.672;2022-12-07T10:38:25;30.50;;;15.70;;
62523;SDS011;53689;56.878;60.672;2022-12-07T10:41:02;29.10;;;16.95;;
62523;SDS011;53689;56.878;60.672;2022-12-07T10:43:33;31.48;;;16.65;;
62523;SDS011;53689;56.878;60.672;2022-12-07T10:46:13;26.08;;;15.82;;
62523;SDS011;53689;56.878;60.672;2022-12-07T10:49:04;27.40;;;16.48;;
62523;SDS011;53689;56.878;60.672;2022-12-07T10:51:45;28.35;;;15.45;;
62523;SDS011;53689;56.878;60.672;2022-12-07T10:54:22;28.52;;;16.77;;
62523;SDS011;53689;56.878;60.672;2022-12-07T11:00:04;27.58;;;15.20;;
62523;SDS011;53689;56.878;60.672;2022-12-07T11:02:53;30.48;;;15.75;;
62523;SDS011;53689;56.878;60.672;2022-12-07T11:05:30;27.23;;;16.00;;
62523;SDS011;53689;56.878;60.672;2022-12-07T11:08:09;31.17;;;16.38;;
62523;SDS011;53689;56.878;60.672;2022-12-07T11:10:44;26.65;;;15.70;;
62523;SDS011;53689;56.878;60.672;2022-12-07T11:13:23;27.13;;;15.55;;
62523;SDS011;53689;56.878;60.672;2022-12-07T11:16:09;30.38;;;17.10;;
62523;SDS011;53689;56.878;60.672;2022-12-07T11:18:49;27.50;;;16.58;;
62523;SDS011;53689;56.878;60.672;2022-12-07T11:21:26;26.13;;;15.48;;
62523;SDS011;53689;56.878;60.672;2022-12-07T11:24:01;29.13;;;14.05;;
62523;SDS011;53689;56.878;60.672;2022-12-07T11:26:42;25.92;;;15.30;;
62523;SDS011;53689;56.878;60.672;2022-12-07T11:29:28;24.98;;;15.00;;
62523;SDS011;53689;56.878;60.672;2022-12-07T11:32:15;28.08;;;17.30;;
62523;SDS011;53689;56.878;60.672;2022-12-07T11:34:51;27.90;;;15.90;;
62523;SDS011;53689;56.878;60.672;2022-12-07T11:37:28;29.05;;;16.27;;
62523;SDS011;53689;56.878;60.672;2022-12-07T11:40:09;32.22;;;15.68;;
62523;SDS011;53689;56.878;60.672;2022-12-07T11:42:46;32.22;;;15.98;;
62523;SDS011;53689;56.878;60.672;2022-12-07T11:45:20;32.58;;;16.15;;
62523;SDS011;53689;56.878;60.672;2022-12-07T11:47:55;30.88;;;16.48;;
62523;SDS011;53689;56.878;60.672;2022-12-07T11:50:33;29.88;;;17.23;;
62523;SDS011;53689;56.878;60.672;2022-12-07T11:53:05;28.92;;;15.82;;
62523;SDS011;53689;56.878;60.672;2022-12-07T11:55:42;30.42;;;15.98;;
62523;SDS011;53689;56.878;60.672;2022-12-07T11:58:18;26.40;;;14.95;;
62523;SDS011;53689;56.878;60.672;2022-12-07T12:01:04;28.80;;;15.98;;
62523;SDS011;53689;56.878;60.672;2022-12-07T12:03:44;27.55;;;15.43;;
62523;SDS011;53689;56.878;60.672;2022-12-07T12:06:19;26.30;;;16.75;;
62523;SDS011;53689;56.878;60.672;2022-12-07T12:08:48;28.95;;;17.33;;
62523;SDS011;53689;56.878;60.672;2022-12-07T12:12:04;26.50;;;16.25;;
62523;SDS011;53689;56.878;60.672;2022-12-07T12:15:09;33.72;;;17.35;;
62523;SDS011;53689;56.878;60.672;2022-12-07T12:17:52;25.42;;;14.48;;
62523;SDS011;53689;56.878;60.672;2022-12-07T12:20:35;28.98;;;15.70;;
62523;SDS011;53689;56.878;60.672;2022-12-07T12:23:10;23.88;;;14.23;;
62523;SDS011;53689;56.878;60.672;2022-12-07T12:25:41;23.98;;;14.18;;
62523;SDS011;53689;56.878;60.672;2022-12-07T12:28:19;26.88;;;14.27;;
62523;SDS011;53689;56.878;60.672;2022-12-07T12:33:42;28.35;;;14.25;;
62523;SDS011;53689;56.878;60.672;2022-12-07T12:36:24;25.63;;;14.63;;
62523;SDS011;53689;56.878;60.672;2022-12-07T12:39:09;25.38;;;14.73;;
62523;SDS011;53689;56.878;60.672;2022-12-07T12:41:55;29.70;;;15.13;;
62523;SDS011;53689;56.878;60.672;2022-12-07T12:44:40;31.25;;;17.30;;
62523;SDS011;53689;56.878;60.672;2022-12-07T12:47:40;25.88;;;16.08;;
62523;SDS011;53689;56.878;60.672;2022-12-07T12:50:30;27.67;;;16.08;;
62523;SDS011;53689;56.878;60.672;2022-12-07T12:53:03;31.42;;;15.77;;
62523;SDS011;53689;56.878;60.672;2022-12-07T12:59:16;27.15;;;15.38;;
62523;SDS011;53689;56.878;60.672;2022-12-07T13:01:50;22.00;;;14.77;;
62523;SDS011;53689;56.878;60.672;2022-12-07T13:04:37;26.05;;;14.95;;
62523;SDS011;53689;56.878;60.672;2022-12-07T13:10:27;27.75;;;15.90;;
62523;SDS011;53689;56.878;60.672;2022-12-07T13:13:03;23.85;;;14.55;;
62523;SDS011;53689;56.878;60.672;2022-12-07T13:15:52;27.70;;;16.10;;
62523;SDS011;53689;56.878;60.672;2022-12-07T13:18:24;28.67;;;15.55;;
62523;SDS011;53689;56.878;60.672;2022-12-07T13:21:02;22.20;;;14.27;;
62523;SDS011;53689;56.878;60.672;2022-12-07T13:24:10;24.75;;;14.48;;
62523;SDS011;53689;56.878;60.672;2022-12-07T13:26:42;26.35;;;16.00;;
62523;SDS011;53689;56.878;60.672;2022-12-07T13:29:11;26.42;;;14.32;;
62523;SDS011;53689;56.878;60.672;2022-12-07T13:31:40;25.38;;;15.15;;
62523;SDS011;53689;56.878;60.672;2022-12-07T13:36:56;29.33;;;15.23;;
62523;SDS011;53689;56.878;60.672;2022-12-07T13:39:26;24.42;;;13.60;;
62523;SDS011;53689;56.878;60.672;2022-12-07T13:41:56;23.20;;;12.88;;
62523;SDS011;53689;56.878;60.672;2022-12-07T13:44:25;24.95;;;14.73;;
62523;SDS011;53689;56.878;60.672;2022-12-07T13:46:59;24.90;;;14.93;;
62523;SDS011;53689;56.878;60.672;2022-12-07T13:49:33;23.17;;;14.35;;
62523;SDS011;53689;56.878;60.672;2022-12-07T13:52:13;22.95;;;14.13;;
62523;SDS011;53689;56.878;60.672;2022-12-07T13:54:46;27.60;;;13.90;;
62523;SDS011;53689;56.878;60.672;2022-12-07T13:57:16;24.77;;;13.57;;
62523;SDS011;53689;56.878;60.672;2022-12-07T14:02:17;22.50;;;13.38;;
62523;SDS011;53689;56.878;60.672;2022-12-07T14:04:48;23.52;;;15.52;;
62523;SDS011;53689;56.878;60.672;2022-12-07T14:09:56;38.30;;;25.75;;
62523;SDS011;53689;56.878;60.672;2022-12-07T14:12:27;28.77;;;13.75;;
62523;SDS011;53689;56.878;60.672;2022-12-07T14:14:57;22.83;;;12.55;;
62523;SDS011;53689;56.878;60.672;2022-12-07T14:17:27;22.45;;;12.90;;
62523;SDS011;53689;56.878;60.672;2022-12-07T14:19:55;21.40;;;12.55;;
62523;SDS011;53689;56.878;60.672;2022-12-07T14:22:28;21.88;;;12.18;;
62523;SDS011;53689;56.878;60.672;2022-12-07T14:25:14;22.92;;;12.10;;
62523;SDS011;53689;56.878;60.672;2022-12-07T14:27:53;18.35;;;9.95;;
62523;SDS011;53689;56.878;60.672;2022-12-07T14:30:22;22.52;;;12.63;;
62523;SDS011;53689;56.878;60.672;2022-12-07T14:32:52;25.00;;;11.82;;
62523;SDS011;53689;56.878;60.672;2022-12-07T14:35:22;19.58;;;10.32;;
62523;SDS011;53689;56.878;60.672;2022-12-07T14:37:49;21.73;;;11.05;;
62523;SDS011;53689;56.878;60.672;2022-12-07T14:40:18;19.90;;;10.50;;
62523;SDS011;53689;56.878;60.672;2022-12-07T14:42:48;20.73;;;11.57;;
62523;SDS011;53689;56.878;60.672;2022-12-07T14:45:22;20.75;;;11.43;;
62523;SDS011;53689;56.878;60.672;2022-12-07T14:47:50;18.33;;;10.75;;
62523;SDS011;53689;56.878;60.672;2022-12-07T14:50:40;22.77;;;11.73;;
62523;SDS011;53689;56.878;60.672;2022-12-07T14:53:33;22.23;;;11.50;;
62523;SDS011;53689;56.878;60.672;2022-12-07T14:56:04;19.75;;;10.52;;
62523;SDS011;53689;56.878;60.672;2022-12-07T14:58:32;18.80;;;10.63;;
62523;SDS011;53689;56.878;60.672;2022-12-07T15:01:02;19.25;;;10.05;;
62523;SDS011;53689;56.878;60.672;2022-12-07T15:03:30;18.40;;;10.63;;
62523;SDS011;53689;56.878;60.672;2022-12-07T15:05:58;17.83;;;11.25;;
62523;SDS011;53689;56.878;60.672;2022-12-07T15:08:25;16.40;;;9.32;;
62523;SDS011;53689;56.878;60.672;2022-12-07T15:10:54;19.98;;;9.70;;
62523;SDS011;53689;56.878;60.672;2022-12-07T15:13:21;17.52;;;9.73;;
62523;SDS011;53689;56.878;60.672;2022-12-07T15:15:50;19.02;;;9.95;;
62523;SDS011;53689;56.878;60.672;2022-12-07T15:18:22;16.38;;;9.95;;
62523;SDS011;53689;56.878;60.672;2022-12-07T15:20:50;16.65;;;10.60;;
62523;SDS011;53689;56.878;60.672;2022-12-07T15:23:18;16.75;;;9.50;;
62523;SDS011;53689;56.878;60.672;2022-12-07T15:25:47;17.52;;;10.57;;